This is the latest recevied weather packets stored in our database for station/object KD5UMO-1. If no packets are shown the sender has not sent any weather packets the latest 10 day(s).
| Time | Temp. | Humidity | Pressure | Rain* | Wind** | Luminosity | Snow |
|---|---|---|---|---|---|---|---|
| 1777510313 | 17.22° C | 78% | 1013.7 hPa | 0 mm | - | 5 W/m² | - |
| 1777510009 | 17.22° C | 78% | 1013.6 hPa | 0 mm | - | 8 W/m² | - |
| 1777509705 | 17.22° C | 78% | 1013.7 hPa | 0 mm | - | 19 W/m² | - |
| 1777509402 | 17.22° C | 78% | 1013.5 hPa | 0 mm | - | 28 W/m² | - |
| 1777509099 | 17.22° C | 78% | 1013.7 hPa | 0 mm | - | 22 W/m² | - |
| 1777508796 | 17.22° C | 78% | 1013.3 hPa | 0 mm | - | 32 W/m² | - |
| 1777508493 | 17.22° C | 79% | 1013.8 hPa | 0 mm | - | 23 W/m² | - |
| 1777508190 | 17.22° C | 79% | 1013.8 hPa | 0 mm | - | 26 W/m² | - |
| 1777507887 | 17.22° C | 79% | 1013.4 hPa | 0 mm | - | 31 W/m² | - |
| 1777507584 | 16.67° C | 80% | 1013.3 hPa | 0 mm | - | 37 W/m² | - |
| 1777507281 | 16.67° C | 80% | 1013.4 hPa | 0 mm | - | 38 W/m² | - |
| 1777506978 | 16.67° C | 80% | 1013.6 hPa | 0 mm | - | 28 W/m² | - |
| 1777506675 | 16.67° C | 80% | 1013.7 hPa | 0 mm | - | 12 W/m² | - |
| 1777506372 | 16.67° C | 80% | 1013.1 hPa | 0 mm | - | 15 W/m² | - |
| 1777506068 | 16.67° C | 80% | 1013.1 hPa | 0 mm | - | 37 W/m² | - |
| 1777505763 | 16.67° C | 80% | 1013.1 hPa | 0 mm | - | 46 W/m² | - |
| 1777505460 | 16.67° C | 81% | 1013.2 hPa | 0 mm | - | 67 W/m² | - |
| 1777505157 | 16.67° C | 82% | 1013.2 hPa | 0 mm | - | 58 W/m² | - |
| 1777504854 | 16.67° C | 82% | 1013.5 hPa | 0 mm | - | 31 W/m² | - |
| 1777504551 | 16.67° C | 82% | 1013.4 hPa | 0 mm | - | 59 W/m² | - |
| 1777504246 | 16.67° C | 82% | 1013.1 hPa | 0 mm | - | 93 W/m² | - |
| 1777503942 | 16.67° C | 83% | 1013.5 hPa | 0 mm | - | 67 W/m² | - |
| 1777503639 | 16.67° C | 84% | 1013.7 hPa | 0 mm | - | 75 W/m² | - |
| 1777503336 | 16.67° C | 84% | 1013.9 hPa | 0 mm | - | 59 W/m² | - |
| 1777503032 | 16.11° C | 84% | 1013.9 hPa | 0.51 mm | - | 74 W/m² | - |
* Rain latest hour (hover to see other rain measurements)
** Current wind speed in m/s (hover to see current wind gust speed)